Time;durP1;ratioP1;P1;durP2;ratioP2;P2;SDS_P1;SDS_P2;PMS_P1;PMS_P2;Temp;Humidity;BMP_temperature;BMP_pressure;BME280_temperature;BME280_humidity;BME280_pressure;Samples;Min_cycle;Max_cycle;Signal;HPM_P1;HPM_P2
2023/03/21 00:00:21;;;;;;;12.95;7.63;;;12.70;99.90;;;;;;5031915;28;20374;-71
2023/03/21 00:02:47;;;;;;;11.77;8.13;;;12.60;99.90;;;;;;5031213;28;20351;-71
2023/03/21 00:05:13;;;;;;;15.30;8.48;;;12.60;99.90;;;;;;5032223;28;20040;-71
2023/03/21 00:07:39;;;;;;;18.05;8.70;;;12.60;99.90;;;;;;5031098;28;20497;-71
2023/03/21 00:10:05;;;;;;;11.88;7.85;;;12.70;99.90;;;;;;5032328;28;20029;-71
2023/03/21 00:12:36;;;;;;;14.07;7.75;;;12.70;99.90;;;;;;5022470;28;20029;-71
2023/03/21 00:15:06;;;;;;;11.23;7.80;;;12.60;99.90;;;;;;5011982;28;20065;-70
2023/03/21 00:17:32;;;;;;;17.90;7.95;;;12.70;99.90;;;;;;5013568;28;20052;-71
2023/03/21 00:20:05;;;;;;;13.95;8.30;;;12.70;99.90;;;;;;5016665;28;20058;-71
2023/03/21 00:22:34;;;;;;;14.73;8.05;;;12.70;99.90;;;;;;5016556;28;20427;-70
2023/03/21 00:25:01;;;;;;;11.25;7.55;;;12.70;99.90;;;;;;5015286;28;20053;-71
2023/03/21 00:27:27;;;;;;;19.85;8.05;;;12.60;99.90;;;;;;5016059;28;20034;-71
2023/03/21 00:29:53;;;;;;;12.70;8.45;;;12.60;99.90;;;;;;5021288;28;20394;-71
2023/03/21 00:32:20;;;;;;;16.40;7.63;;;12.60;99.90;;;;;;5035653;28;20033;-71
2023/03/21 00:34:46;;;;;;;13.65;8.55;;;12.60;99.90;;;;;;5036362;28;20033;-71
2023/03/21 00:37:15;;;;;;;13.80;8.57;;;12.50;99.90;;;;;;5036056;28;20025;-70
2023/03/21 00:39:43;;;;;;;14.02;8.40;;;12.50;99.90;;;;;;5036289;28;20037;-71
2023/03/21 00:42:09;;;;;;;13.90;7.97;;;12.60;99.90;;;;;;5035959;28;20050;-71
2023/03/21 00:44:35;;;;;;;13.50;7.88;;;12.50;99.90;;;;;;5035864;28;20032;-71
2023/03/21 00:47:05;;;;;;;14.75;8.65;;;12.50;99.90;;;;;;5035477;28;20052;-71
2023/03/21 00:49:32;;;;;;;16.05;8.13;;;12.40;99.90;;;;;;5035749;28;20017;-71
2023/03/21 00:51:59;;;;;;;12.52;8.20;;;12.50;99.90;;;;;;5036003;28;20041;-71
2023/03/21 00:54:25;;;;;;;18.17;8.93;;;12.50;99.90;;;;;;5035829;28;20022;-71
2023/03/21 00:56:52;;;;;;;14.60;9.20;;;12.40;99.90;;;;;;5035195;28;20045;-71
2023/03/21 00:59:18;;;;;;;16.65;9.15;;;12.40;99.90;;;;;;5035610;28;20030;-71
2023/03/21 01:01:45;;;;;;;15.13;8.88;;;12.40;99.90;;;;;;5035596;28;20037;-71
2023/03/21 01:04:13;;;;;;;14.02;8.07;;;12.40;99.90;;;;;;5035530;28;20024;-71
2023/03/21 01:06:40;;;;;;;12.85;8.65;;;12.50;99.90;;;;;;5035279;28;20494;-71
2023/03/21 01:09:17;;;;;;;15.18;8.35;;;12.40;99.90;;;;;;5035878;28;20036;-71
2023/03/21 01:11:43;;;;;;;13.32;8.88;;;12.40;99.90;;;;;;5032054;28;20367;-71
2023/03/21 01:14:09;;;;;;;17.88;8.98;;;12.30;99.90;;;;;;5015501;28;20037;-71
2023/03/21 01:16:35;;;;;;;15.07;8.73;;;12.30;99.90;;;;;;5015375;28;20041;-71
2023/03/21 01:19:02;;;;;;;17.02;9.73;;;12.20;99.90;;;;;;5015560;28;20110;-71
2023/03/21 01:21:30;;;;;;;14.30;8.82;;;12.20;99.90;;;;;;5015279;28;20046;-71
2023/03/21 01:23:56;;;;;;;12.80;9.55;;;12.10;99.90;;;;;;5015215;28;20056;-70
2023/03/21 01:26:22;;;;;;;14.00;9.13;;;12.10;99.90;;;;;;5015427;28;20410;-71
2023/03/21 01:28:49;;;;;;;11.43;8.85;;;12.00;99.90;;;;;;5014844;28;20040;-71
2023/03/21 01:31:16;;;;;;;15.43;9.07;;;12.00;99.90;;;;;;5030884;28;20037;-71
2023/03/21 01:33:42;;;;;;;14.90;9.73;;;12.00;99.90;;;;;;5033828;28;20033;-71
2023/03/21 01:36:20;;;;;;;18.30;9.30;;;12.00;99.90;;;;;;5034946;28;20029;-71
2023/03/21 01:38:46;;;;;;;12.30;9.45;;;11.90;99.90;;;;;;5034369;28;20109;-71
2023/03/21 01:41:36;;;;;;;16.90;9.90;;;11.90;99.90;;;;;;5035060;28;20040;-71
2023/03/21 01:44:03;;;;;;;13.85;9.13;;;11.90;99.90;;;;;;5034430;28;20033;-71
2023/03/21 01:46:43;;;;;;;15.95;9.82;;;11.90;99.90;;;;;;5034635;28;20046;-71
2023/03/21 01:49:19;;;;;;;19.85;9.75;;;11.90;99.90;;;;;;5035114;28;20037;-70
2023/03/21 01:51:49;;;;;;;15.50;9.70;;;11.90;99.90;;;;;;5033540;28;20025;-71
2023/03/21 01:54:23;;;;;;;15.77;9.57;;;11.80;99.90;;;;;;5033143;28;20041;-71
2023/03/21 01:56:50;;;;;;;17.25;10.27;;;11.70;99.90;;;;;;5033297;28;20064;-71
2023/03/21 01:59:25;;;;;;;18.60;10.23;;;11.70;99.90;;;;;;5017052;28;20037;-71
2023/03/21 02:01:51;;;;;;;16.48;10.20;;;11.60;99.90;;;;;;5017119;28;20551;-71
2023/03/21 02:04:21;;;;;;;16.38;10.80;;;11.60;99.90;;;;;;5033271;28;20037;-71
2023/03/21 02:06:52;;;;;;;17.50;10.52;;;11.60;99.90;;;;;;5033012;28;20053;-71
2023/03/21 02:09:20;;;;;;;21.17;10.65;;;11.50;99.90;;;;;;5032765;28;20021;-70
2023/03/21 02:11:47;;;;;;;14.88;10.73;;;11.50;99.90;;;;;;5014591;28;20034;-71
2023/03/21 02:14:15;;;;;;;20.92;11.52;;;11.40;99.90;;;;;;5014533;28;20490;-71
2023/03/21 02:16:47;;;;;;;19.13;10.43;;;11.40;99.90;;;;;;5013995;28;20030;-71
2023/03/21 02:19:22;;;;;;;18.25;10.23;;;11.40;99.90;;;;;;5013353;28;20042;-71
2023/03/21 02:22:13;;;;;;;16.10;10.60;;;11.40;99.90;;;;;;5014238;28;20426;-71
2023/03/21 02:24:57;;;;;;;19.13;10.70;;;11.40;99.90;;;;;;5014311;28;20069;-71
2023/03/21 02:27:25;;;;;;;26.38;10.50;;;11.40;99.90;;;;;;5014122;28;20049;-71
2023/03/21 02:29:57;;;;;;;17.58;10.50;;;11.40;99.90;;;;;;5034180;28;20028;-70
2023/03/21 02:32:30;;;;;;;18.48;10.68;;;11.40;99.90;;;;;;5033528;28;20041;-71
2023/03/21 02:35:19;;;;;;;17.20;10.27;;;11.30;99.90;;;;;;5034075;28;20037;-71
2023/03/21 02:37:52;;;;;;;16.70;10.95;;;11.40;99.90;;;;;;5030620;28;20478;-71
2023/03/21 02:40:29;;;;;;;14.35;10.05;;;11.40;99.90;;;;;;5014170;28;20414;-71
2023/03/21 02:43:04;;;;;;;16.27;10.40;;;11.30;99.90;;;;;;5014958;28;20049;-71
2023/03/21 02:45:53;;;;;;;15.80;10.85;;;11.20;99.90;;;;;;5014717;28;20034;-71
2023/03/21 02:48:30;;;;;;;18.55;10.93;;;11.20;99.90;;;;;;5017245;28;20076;-71
2023/03/21 02:50:57;;;;;;;14.73;10.60;;;11.20;99.90;;;;;;5015123;28;20033;-71
2023/03/21 02:53:27;;;;;;;15.20;10.85;;;11.10;99.90;;;;;;5014465;28;20037;-71
2023/03/21 02:55:53;;;;;;;11.60;10.32;;;11.10;99.90;;;;;;5015131;28;20034;-71
2023/03/21 02:58:20;;;;;;;17.35;10.90;;;11.10;99.90;;;;;;5014852;28;20031;-71
2023/03/21 03:00:46;;;;;;;18.38;11.30;;;11.00;99.90;;;;;;5014422;28;20026;-71
2023/03/21 03:03:12;;;;;;;15.90;11.00;;;11.00;99.90;;;;;;5014647;28;20029;-70
2023/03/21 03:05:49;;;;;;;17.10;11.00;;;11.00;99.90;;;;;;5030780;28;20462;-71
2023/03/21 03:08:48;;;;;;;17.63;11.60;;;11.00;99.90;;;;;;5015142;28;20633;-71
2023/03/21 03:11:38;;;;;;;18.80;12.20;;;11.10;99.90;;;;;;5030908;28;20036;-71
2023/03/21 03:14:26;;;;;;;16.83;11.00;;;11.00;99.90;;;;;;4973594;28;20042;-71
2023/03/21 03:17:19;;;;;;;15.00;10.55;;;11.00;99.90;;;;;;4993362;28;20027;-71
2023/03/21 03:20:20;;;;;;;21.70;10.57;;;11.00;99.90;;;;;;4992818;28;20414;-71
2023/03/21 03:22:55;;;;;;;18.17;11.43;;;11.00;99.90;;;;;;4998129;28;20050;-71
2023/03/21 03:25:25;;;;;;;19.13;11.90;;;10.90;99.90;;;;;;5013045;28;20498;-71
2023/03/21 03:27:51;;;;;;;17.65;11.35;;;10.90;99.90;;;;;;4995957;28;20034;-71
2023/03/21 03:30:19;;;;;;;13.18;10.93;;;10.90;99.90;;;;;;5003538;28;20045;-71
2023/03/21 03:32:54;;;;;;;17.55;10.98;;;10.90;99.90;;;;;;5032744;28;20033;-71
2023/03/21 03:35:20;;;;;;;17.30;11.02;;;11.00;99.90;;;;;;5015611;28;20041;-70
2023/03/21 03:37:47;;;;;;;24.27;10.48;;;10.90;99.90;;;;;;5031504;28;20041;-71
2023/03/21 03:40:22;;;;;;;14.90;10.15;;;10.90;99.90;;;;;;5015359;28;20481;-71
2023/03/21 03:42:52;;;;;;;22.65;10.98;;;10.90;99.90;;;;;;5032650;28;20470;-71
2023/03/21 03:45:19;;;;;;;15.43;9.60;;;10.80;99.90;;;;;;5030964;28;20045;-71
2023/03/21 03:47:54;;;;;;;15.40;10.10;;;10.90;99.90;;;;;;5015132;28;20037;-71
2023/03/21 03:50:48;;;;;;;17.02;9.68;;;10.90;99.90;;;;;;5014678;28;20490;-71
2023/03/21 03:53:35;;;;;;;24.52;9.65;;;11.00;99.90;;;;;;5031576;28;20033;-71
2023/03/21 03:56:01;;;;;;;17.85;9.35;;;11.00;99.90;;;;;;5031271;28;20033;-71
2023/03/21 03:58:28;;;;;;;17.00;9.20;;;11.00;99.90;;;;;;5014878;28;20402;-71
2023/03/21 04:00:54;;;;;;;16.20;9.05;;;11.00;99.90;;;;;;5014452;28;20482;-71
2023/03/21 04:03:20;;;;;;;12.95;9.05;;;11.00;99.90;;;;;;5032208;28;20037;-67
2023/03/21 04:05:46;;;;;;;12.80;9.00;;;10.90;99.90;;;;;;5032264;28;20033;-71
2023/03/21 04:08:14;;;;;;;14.25;8.80;;;10.90;99.90;;;;;;5032142;28;20045;-71
2023/03/21 04:10:41;;;;;;;19.33;9.05;;;10.90;99.90;;;;;;5032520;28;20513;-71
2023/03/21 04:13:07;;;;;;;14.43;8.70;;;11.00;99.90;;;;;;5019089;28;20061;-71
2023/03/21 04:15:34;;;;;;;17.52;8.77;;;10.90;99.90;;;;;;5012066;28;20046;-71
2023/03/21 04:18:00;;;;;;;17.40;8.57;;;11.00;99.90;;;;;;5012016;28;20037;-71
2023/03/21 04:20:26;;;;;;;17.58;9.43;;;11.00;99.90;;;;;;5012547;28;20474;-71
2023/03/21 04:22:53;;;;;;;12.98;8.90;;;11.00;99.90;;;;;;5012110;28;20054;-71
2023/03/21 04:25:19;;;;;;;11.30;8.05;;;11.00;99.90;;;;;;5012413;28;20498;-71
2023/03/21 04:27:47;;;;;;;20.77;8.95;;;11.00;99.90;;;;;;5010997;28;20487;-70
2023/03/21 04:30:14;;;;;;;16.60;8.98;;;10.90;99.90;;;;;;5019352;28;20037;-70
2023/03/21 04:32:40;;;;;;;16.50;9.38;;;10.60;99.90;;;;;;5031577;28;20041;-70
2023/03/21 04:35:07;;;;;;;17.10;9.55;;;10.30;99.90;;;;;;5032209;28;20029;-71
2023/03/21 04:37:33;;;;;;;15.30;9.55;;;10.40;99.90;;;;;;5032208;28;20493;-70
2023/03/21 04:40:05;;;;;;;17.65;9.15;;;10.60;99.90;;;;;;5030334;28;20398;-70
2023/03/21 04:42:31;;;;;;;16.02;8.80;;;10.70;99.90;;;;;;5030801;28;20061;-71
2023/03/21 04:44:57;;;;;;;17.30;9.13;;;10.80;99.90;;;;;;5031916;28;20025;-71
2023/03/21 04:47:23;;;;;;;13.30;8.73;;;10.80;99.90;;;;;;5031084;28;20037;-70
2023/03/21 04:49:50;;;;;;;15.95;8.57;;;10.70;99.90;;;;;;5031870;28;20033;-70
2023/03/21 04:52:16;;;;;;;20.40;8.68;;;10.80;99.90;;;;;;5032202;28;20057;-70
2023/03/21 04:54:42;;;;;;;16.40;8.63;;;10.80;99.90;;;;;;5031787;28;20032;-70
2023/03/21 04:57:08;;;;;;;13.40;7.93;;;10.90;99.90;;;;;;5031897;28;20030;-71
2023/03/21 04:59:34;;;;;;;15.23;8.43;;;10.90;99.90;;;;;;5031828;28;20033;-71
2023/03/21 05:02:01;;;;;;;11.27;7.93;;;11.00;99.90;;;;;;5031002;28;20478;-71
2023/03/21 05:04:28;;;;;;;14.10;7.97;;;11.00;99.90;;;;;;5035714;28;20375;-71
2023/03/21 05:06:55;;;;;;;11.75;8.43;;;11.00;99.90;;;;;;5035248;28;20038;-71
2023/03/21 05:09:21;;;;;;;13.75;8.73;;;11.00;99.90;;;;;;5035729;28;20037;-70
2023/03/21 05:11:47;;;;;;;16.45;8.35;;;11.00;99.90;;;;;;5032848;28;20048;-71
2023/03/21 05:14:21;;;;;;;14.07;8.07;;;11.00;99.90;;;;;;5015589;28;20022;-71
2023/03/21 05:16:51;;;;;;;12.32;8.38;;;10.90;99.90;;;;;;5013749;28;20561;-71
2023/03/21 05:19:19;;;;;;;16.27;8.10;;;11.00;99.90;;;;;;5015715;28;20483;-71
2023/03/21 05:21:45;;;;;;;12.63;8.07;;;11.00;99.90;;;;;;5015379;28;20046;-71
2023/03/21 05:24:16;;;;;;;17.88;8.98;;;11.00;99.90;;;;;;5015253;28;20038;-71
2023/03/21 05:26:43;;;;;;;13.38;8.07;;;11.00;99.90;;;;;;5014178;28;20057;-70
2023/03/21 05:29:09;;;;;;;11.07;7.80;;;11.00;99.90;;;;;;5014039;28;20045;-71
2023/03/21 05:31:35;;;;;;;13.45;8.02;;;11.00;99.90;;;;;;5031807;28;20582;-71
2023/03/21 05:34:02;;;;;;;13.00;8.18;;;11.00;99.90;;;;;;5035214;28;20053;-70
2023/03/21 05:36:28;;;;;;;13.40;8.18;;;11.10;99.90;;;;;;5034050;28;20394;-71
2023/03/21 05:38:54;;;;;;;13.98;7.80;;;11.10;99.90;;;;;;5034892;28;20029;-71
2023/03/21 05:41:20;;;;;;;13.48;7.60;;;11.00;99.90;;;;;;5035183;28;20038;-70
2023/03/21 05:43:46;;;;;;;15.02;8.13;;;11.00;99.90;;;;;;5034954;28;20041;-70
2023/03/21 05:46:12;;;;;;;11.05;7.55;;;11.00;99.90;;;;;;5034007;28;20040;-71
2023/03/21 05:48:38;;;;;;;12.65;7.53;;;10.90;99.90;;;;;;5034677;28;20401;-71
2023/03/21 05:51:05;;;;;;;11.63;8.45;;;10.60;99.90;;;;;;5034731;28;20033;-71
2023/03/21 05:53:31;;;;;;;9.73;7.82;;;10.50;99.90;;;;;;5034547;28;20042;-71
2023/03/21 05:55:57;;;;;;;12.30;7.75;;;10.60;99.90;;;;;;5034532;28;20459;-70
2023/03/21 05:58:23;;;;;;;11.55;8.15;;;10.80;99.90;;;;;;5034676;28;20040;-71
2023/03/21 06:00:49;;;;;;;8.57;7.50;;;10.80;99.90;;;;;;5033864;28;20490;-71
2023/03/21 06:03:15;;;;;;;12.75;7.72;;;10.80;99.90;;;;;;5034927;28;20394;-71
2023/03/21 06:05:42;;;;;;;11.95;7.18;;;10.90;99.90;;;;;;5034568;28;20049;-70
2023/03/21 06:08:08;;;;;;;15.40;7.43;;;10.90;99.90;;;;;;5034359;28;20050;-70
2023/03/21 06:10:34;;;;;;;11.23;7.65;;;11.00;99.90;;;;;;5034558;28;20052;-70
2023/03/21 06:13:00;;;;;;;12.45;8.13;;;10.90;99.90;;;;;;5021885;28;20030;-70
2023/03/21 06:15:26;;;;;;;9.05;6.90;;;10.90;99.90;;;;;;5012498;28;20022;-70
2023/03/21 06:17:52;;;;;;;11.50;7.50;;;11.00;99.90;;;;;;5014266;28;20037;-70
2023/03/21 06:20:18;;;;;;;12.07;7.60;;;11.00;99.90;;;;;;5014522;28;20030;-71
2023/03/21 06:22:44;;;;;;;10.48;7.55;;;11.00;99.90;;;;;;5014039;28;20423;-70
2023/03/21 06:25:10;;;;;;;13.18;8.15;;;11.00;99.90;;;;;;5014216;28;20026;-70
2023/03/21 06:27:36;;;;;;;13.55;7.43;;;11.00;99.90;;;;;;5014108;28;20037;-71
2023/03/21 06:30:03;;;;;;;13.55;7.70;;;11.00;99.90;;;;;;5019572;28;20028;-70
2023/03/21 06:32:29;;;;;;;13.30;7.90;;;11.00;99.90;;;;;;5034311;28;20032;-69
2023/03/21 06:34:55;;;;;;;15.18;8.05;;;11.00;99.90;;;;;;5034567;28;20109;-71
2023/03/21 06:37:22;;;;;;;11.55;8.10;;;11.00;99.90;;;;;;5034089;28;20041;-71
2023/03/21 06:39:48;;;;;;;12.13;8.07;;;11.00;99.90;;;;;;5034114;28;20048;-71
2023/03/21 06:42:14;;;;;;;11.73;7.80;;;11.00;99.90;;;;;;5033882;28;20037;-70
2023/03/21 06:44:40;;;;;;;15.57;8.05;;;11.00;99.90;;;;;;5033259;28;20033;-70
2023/03/21 06:47:06;;;;;;;11.30;7.85;;;11.10;99.90;;;;;;5033233;28;20038;-71
2023/03/21 06:49:32;;;;;;;18.30;7.55;;;11.10;99.90;;;;;;5033590;28;20048;-71
2023/03/21 06:51:58;;;;;;;9.65;7.15;;;11.20;99.90;;;;;;5033752;28;20049;-70
2023/03/21 06:54:24;;;;;;;12.35;7.13;;;11.20;99.90;;;;;;5033391;28;20408;-71
2023/03/21 06:56:51;;;;;;;16.30;8.77;;;11.30;99.90;;;;;;5033535;28;20037;-70
2023/03/21 06:59:17;;;;;;;12.82;7.57;;;11.30;99.90;;;;;;5033112;28;20034;-70
2023/03/21 07:01:43;;;;;;;11.98;7.72;;;11.30;99.90;;;;;;5032982;28;20034;-70
2023/03/21 07:04:09;;;;;;;12.30;7.22;;;11.30;99.90;;;;;;5033517;28;20501;-70
2023/03/21 07:06:36;;;;;;;12.50;7.90;;;11.30;99.90;;;;;;5032137;28;20037;-71
2023/03/21 07:09:04;;;;;;;11.57;8.45;;;11.30;99.90;;;;;;5033543;28;20482;-71
2023/03/21 07:11:30;;;;;;;12.35;8.13;;;11.30;99.90;;;;;;5033259;28;20045;-71
2023/03/21 07:13:56;;;;;;;8.50;7.68;;;11.40;99.90;;;;;;5013467;28;20037;-70
2023/03/21 07:16:23;;;;;;;12.85;7.65;;;11.40;99.90;;;;;;5012820;28;20038;-70
2023/03/21 07:18:50;;;;;;;10.95;8.30;;;11.40;99.90;;;;;;5013287;28;20052;-71
2023/03/21 07:21:16;;;;;;;9.70;7.80;;;11.40;99.90;;;;;;5013255;28;20387;-71
2023/03/21 07:23:42;;;;;;;11.48;7.80;;;11.40;99.90;;;;;;5013004;28;20033;-71
2023/03/21 07:26:08;;;;;;;15.23;7.47;;;11.40;99.90;;;;;;5012664;28;20502;-71
2023/03/21 07:28:35;;;;;;;14.07;7.57;;;11.50;99.90;;;;;;5012741;28;20044;-70
2023/03/21 07:31:03;;;;;;;8.75;7.05;;;11.50;99.90;;;;;;5026753;28;20033;-71
2023/03/21 07:33:29;;;;;;;10.23;6.85;;;11.50;99.90;;;;;;5032986;28;20037;-71
2023/03/21 07:35:56;;;;;;;9.50;7.18;;;11.50;99.90;;;;;;5032640;28;20025;-71
2023/03/21 07:38:22;;;;;;;11.80;7.20;;;11.60;99.90;;;;;;5033256;28;20045;-70
2023/03/21 07:40:49;;;;;;;12.32;9.27;;;11.60;99.90;;;;;;5032633;28;20032;-71
2023/03/21 07:43:15;;;;;;;11.70;7.47;;;11.60;99.90;;;;;;5032525;28;20030;-70
2023/03/21 07:45:42;;;;;;;11.60;7.03;;;11.60;99.90;;;;;;5032039;28;20048;-71
2023/03/21 07:48:09;;;;;;;8.60;7.10;;;11.70;99.90;;;;;;5032487;28;20045;-70
2023/03/21 07:50:35;;;;;;;10.82;7.25;;;11.70;99.90;;;;;;5032485;28;20021;-70
2023/03/21 07:53:01;;;;;;;13.88;7.63;;;11.70;99.90;;;;;;5032530;28;20387;-70
2023/03/21 07:55:27;;;;;;;13.82;7.85;;;11.60;99.90;;;;;;5032128;28;20033;-70
2023/03/21 07:57:53;;;;;;;10.38;7.45;;;11.60;99.90;;;;;;5032461;28;20033;-70
2023/03/21 08:00:23;;;;;;;13.80;8.25;;;11.60;99.90;;;;;;5032407;28;20064;-70
2023/03/21 08:02:53;;;;;;;16.17;9.20;;;11.70;99.90;;;;;;5032198;28;20033;-71
2023/03/21 08:05:21;;;;;;;12.85;9.57;;;11.70;99.90;;;;;;5032748;28;20045;-70
2023/03/21 08:07:47;;;;;;;13.43;9.02;;;11.70;99.90;;;;;;5032172;28;20041;-70
2023/03/21 08:10:14;;;;;;;13.13;10.00;;;11.60;99.90;;;;;;5032011;28;20029;-70
2023/03/21 08:12:40;;;;;;;19.85;10.07;;;11.70;99.90;;;;;;5022444;28;20041;-70
2023/03/21 08:15:07;;;;;;;12.73;9.73;;;11.70;99.90;;;;;;5012145;28;20394;-71
2023/03/21 08:17:36;;;;;;;13.75;9.65;;;11.80;99.90;;;;;;5012483;28;20467;-70
2023/03/21 08:20:07;;;;;;;13.00;8.70;;;11.80;99.90;;;;;;5012642;28;20038;-73
2023/03/21 08:22:36;;;;;;;14.65;8.85;;;11.80;99.90;;;;;;5011767;28;20056;-70
2023/03/21 08:25:06;;;;;;;13.80;9.55;;;11.90;99.90;;;;;;5012122;28;20057;-70
2023/03/21 08:27:33;;;;;;;17.23;10.65;;;11.90;99.90;;;;;;5012183;28;20049;-70
2023/03/21 08:30:00;;;;;;;15.73;9.27;;;12.00;99.90;;;;;;5018071;28;20022;-70
2023/03/21 08:32:30;;;;;;;14.48;9.02;;;12.00;99.90;;;;;;5032043;28;20029;-70
2023/03/21 08:35:02;;;;;;;10.75;9.55;;;12.10;99.90;;;;;;5032305;28;20334;-70
2023/03/21 08:37:29;;;;;;;11.32;9.68;;;12.10;99.90;;;;;;5032558;28;20048;-70
2023/03/21 08:39:55;;;;;;;14.63;9.80;;;12.10;99.90;;;;;;5035491;28;20045;-70
2023/03/21 08:42:21;;;;;;;10.43;9.35;;;12.20;99.90;;;;;;5036067;28;20409;-70
2023/03/21 08:44:48;;;;;;;10.38;9.00;;;12.20;99.90;;;;;;5036364;28;20528;-70
2023/03/21 08:47:14;;;;;;;15.60;14.15;;;12.20;99.90;;;;;;5035376;28;20029;-70
2023/03/21 08:49:41;;;;;;;15.85;9.75;;;12.20;99.90;;;;;;5035643;28;20052;-70
2023/03/21 08:52:07;;;;;;;13.55;9.00;;;12.30;99.90;;;;;;5036305;28;20394;-70
2023/03/21 08:54:33;;;;;;;8.57;7.63;;;12.30;99.90;;;;;;5035631;28;20597;-70
2023/03/21 08:56:59;;;;;;;9.15;7.57;;;12.30;99.90;;;;;;5035917;28;20311;-70
2023/03/21 08:59:25;;;;;;;11.63;6.82;;;12.40;99.90;;;;;;5036177;28;20037;-70
2023/03/21 09:01:52;;;;;;;9.70;7.07;;;12.40;99.90;;;;;;5035165;28;20033;-70
2023/03/21 09:04:19;;;;;;;7.78;6.28;;;12.50;99.90;;;;;;5035588;28;20022;-70
2023/03/21 09:06:48;;;;;;;10.15;6.68;;;12.50;99.90;;;;;;5035653;28;20386;-70
2023/03/21 09:09:15;;;;;;;8.77;6.43;;;12.50;99.90;;;;;;5035194;28;20049;-70
2023/03/21 09:11:41;;;;;;;7.97;6.75;;;12.50;99.90;;;;;;5033882;28;20052;-70
2023/03/21 09:14:07;;;;;;;8.30;6.65;;;12.60;99.90;;;;;;5015816;28;20030;-70
2023/03/21 09:16:33;;;;;;;8.52;6.63;;;12.60;99.90;;;;;;5015177;28;20030;-69
2023/03/21 09:19:02;;;;;;;9.98;6.82;;;12.60;99.90;;;;;;5015548;28;20038;-70
2023/03/21 09:21:28;;;;;;;7.10;6.38;;;12.70;99.90;;;;;;5015718;28;20045;-70
2023/03/21 09:23:57;;;;;;;7.88;6.40;;;12.70;99.90;;;;;;5013606;28;20041;-69
2023/03/21 09:26:23;;;;;;;7.50;6.22;;;12.60;99.90;;;;;;5015387;28;20045;-70
2023/03/21 09:28:50;;;;;;;7.55;6.50;;;12.60;99.90;;;;;;5014161;28;20049;-70
2023/03/21 09:31:21;;;;;;;9.63;6.82;;;12.60;99.90;;;;;;5031026;28;20501;-70
2023/03/21 09:33:48;;;;;;;10.82;6.60;;;12.70;99.90;;;;;;5035254;28;20379;-70
2023/03/21 09:36:17;;;;;;;6.82;5.65;;;12.80;99.90;;;;;;5034971;28;20029;-70
2023/03/21 09:38:44;;;;;;;7.43;6.68;;;12.80;99.90;;;;;;5035028;28;20398;-70
2023/03/21 09:41:16;;;;;;;8.45;6.35;;;12.90;99.90;;;;;;5034804;28;20038;-69
2023/03/21 09:43:51;;;;;;;7.80;7.05;;;13.00;99.90;;;;;;5033572;28;20028;-70
2023/03/21 09:46:24;;;;;;;8.40;7.63;;;13.10;99.90;;;;;;5033304;28;20405;-70
2023/03/21 09:48:56;;;;;;;9.52;6.53;;;13.20;99.90;;;;;;5033268;28;20042;-70
2023/03/21 09:51:24;;;;;;;7.20;6.00;;;13.30;99.90;;;;;;5032809;28;20036;-69
2023/03/21 09:53:51;;;;;;;6.88;5.18;;;13.20;99.90;;;;;;5017233;28;20386;-69
2023/03/21 09:56:17;;;;;;;5.78;5.28;;;13.20;99.90;;;;;;5033528;28;20036;-70
2023/03/21 09:58:51;;;;;;;6.70;5.78;;;13.30;99.90;;;;;;5033311;28;20037;-70
2023/03/21 10:01:31;;;;;;;6.97;5.50;;;13.40;99.90;;;;;;5017357;28;20040;-70
2023/03/21 10:04:04;;;;;;;6.28;5.28;;;13.60;99.90;;;;;;5034620;28;20060;-70
2023/03/21 10:06:31;;;;;;;7.47;6.13;;;13.70;99.90;;;;;;5032832;28;20033;-69
2023/03/21 10:09:05;;;;;;;7.00;6.38;;;13.80;99.90;;;;;;5016961;28;20053;-70
2023/03/21 10:11:42;;;;;;;7.32;5.88;;;13.90;99.90;;;;;;5032915;28;20029;-70
2023/03/21 10:14:19;;;;;;;9.45;7.05;;;14.30;99.90;;;;;;5031241;28;20037;-71
2023/03/21 10:16:50;;;;;;;6.95;5.22;;;14.70;99.90;;;;;;5012830;28;20030;-70
2023/03/21 10:19:17;;;;;;;8.55;6.18;;;15.10;99.90;;;;;;5013328;28;20033;-70
2023/03/21 10:21:47;;;;;;;9.80;6.82;;;15.40;99.90;;;;;;5013611;28;20513;-70
2023/03/21 10:24:16;;;;;;;6.18;5.65;;;15.60;99.90;;;;;;5013020;28;20034;-70
2023/03/21 10:26:42;;;;;;;6.13;5.45;;;15.70;99.90;;;;;;5014226;28;20018;-70
2023/03/21 10:29:09;;;;;;;6.65;5.15;;;15.80;99.90;;;;;;4996805;28;20038;-70
2023/03/21 10:31:36;;;;;;;7.75;5.70;;;15.70;99.90;;;;;;5031318;28;20398;-70
2023/03/21 10:34:06;;;;;;;8.40;5.88;;;15.60;99.90;;;;;;5034208;28;20042;-70
2023/03/21 10:36:32;;;;;;;6.63;4.53;;;15.40;99.90;;;;;;5016368;28;20042;-69
2023/03/21 10:39:06;;;;;;;8.68;5.70;;;15.30;99.90;;;;;;5033934;28;20033;-70
2023/03/21 10:41:32;;;;;;;6.32;4.00;;;15.20;99.90;;;;;;5032480;28;20029;-70
2023/03/21 10:44:07;;;;;;;10.00;5.40;;;15.20;99.90;;;;;;5033612;28;20044;-70
2023/03/21 10:46:34;;;;;;;6.57;4.25;;;15.10;99.90;;;;;;5033530;28;20486;-70
2023/03/21 10:49:00;;;;;;;5.00;4.60;;;15.10;99.90;;;;;;5033710;28;20061;-70
2023/03/21 10:51:30;;;;;;;5.85;4.38;;;15.10;99.90;;;;;;5033180;28;20383;-70
2023/03/21 10:54:03;;;;;;;5.85;3.92;;;15.10;99.90;;;;;;5032398;28;20040;-70
2023/03/21 10:56:31;;;;;;;5.47;3.63;;;15.20;99.90;;;;;;5032403;28;20033;-70
2023/03/21 10:58:58;;;;;;;8.98;4.13;;;15.20;99.90;;;;;;5015940;28;20033;-70
2023/03/21 11:01:30;;;;;;;7.47;3.85;;;15.30;99.90;;;;;;5014558;28;20040;-70
2023/03/21 11:03:58;;;;;;;8.38;4.50;;;15.30;99.90;;;;;;5016119;28;20025;-70
2023/03/21 11:06:31;;;;;;;10.80;4.38;;;15.30;99.90;;;;;;5015902;28;20045;-70
2023/03/21 11:09:12;;;;;;;7.55;4.50;;;15.40;99.90;;;;;;5031428;28;20053;-70
2023/03/21 11:11:39;;;;;;;6.43;4.40;;;15.70;99.90;;;;;;5030638;28;20045;-70
2023/03/21 11:14:08;;;;;;;9.93;4.78;;;16.10;99.90;;;;;;5013515;28;20348;-70
2023/03/21 11:16:43;;;;;;;7.82;4.13;;;16.50;99.90;;;;;;5013309;28;20398;-70
2023/03/21 11:19:26;;;;;;;6.25;4.78;;;16.80;99.90;;;;;;5013093;28;20399;-70
2023/03/21 11:21:52;;;;;;;8.20;5.50;;;17.10;99.90;;;;;;5013672;28;20038;-70
2023/03/21 11:24:18;;;;;;;7.00;5.88;;;17.40;99.90;;;;;;5012083;28;20033;-70
2023/03/21 11:26:48;;;;;;;7.13;5.47;;;17.60;99.90;;;;;;4995776;28;20029;-70
2023/03/21 11:29:28;;;;;;;10.82;5.78;;;17.70;99.90;;;;;;5011822;28;20041;-70
2023/03/21 11:32:01;;;;;;;6.45;5.03;;;17.80;99.90;;;;;;4991885;28;20031;-70
2023/03/21 11:34:31;;;;;;;7.63;4.88;;;17.80;99.90;;;;;;4993334;28;20118;-70
2023/03/21 11:36:58;;;;;;;10.90;5.75;;;17.80;99.90;;;;;;5008377;28;20026;-70
2023/03/21 11:39:31;;;;;;;10.05;5.72;;;17.80;99.90;;;;;;4993483;28;20038;-70
2023/03/21 11:41:57;;;;;;;8.02;4.85;;;18.00;99.90;;;;;;4993562;28;20050;-70
2023/03/21 11:44:34;;;;;;;5.90;4.47;;;18.20;99.90;;;;;;4993234;28;20522;-70
2023/03/21 11:47:00;;;;;;;6.57;4.70;;;18.30;99.90;;;;;;4993131;28;20043;-70
2023/03/21 11:49:26;;;;;;;8.52;4.78;;;18.40;99.90;;;;;;4993068;28;20054;-70
2023/03/21 11:51:57;;;;;;;4.82;4.07;;;18.40;99.90;;;;;;5007934;28;20038;-70
2023/03/21 11:54:48;;;;;;;6.93;4.38;;;18.50;99.90;;;;;;5008344;28;20027;-70
2023/03/21 11:57:35;;;;;;;9.32;4.22;;;18.60;99.90;;;;;;4993159;28;20026;-70
2023/03/21 12:00:09;;;;;;;7.55;4.20;;;18.70;99.90;;;;;;5008025;28;20380;-71
2023/03/21 12:03:01;;;;;;;6.72;4.47;;;18.80;99.90;;;;;;5006717;28;21256;-70
2023/03/21 12:05:33;;;;;;;8.50;3.95;;;18.90;99.90;;;;;;4992961;28;20050;-70
2023/03/21 12:08:19;;;;;;;6.65;4.65;;;18.80;99.90;;;;;;4992946;28;20041;-70
2023/03/21 12:11:02;;;;;;;8.35;4.28;;;18.70;99.90;;;;;;4993011;28;20042;-70
2023/03/21 12:13:44;;;;;;;7.28;4.75;;;18.60;99.90;;;;;;5011234;28;20026;-70
2023/03/21 12:16:40;;;;;;;7.90;4.68;;;18.50;99.90;;;;;;5011013;28;20043;-70
2023/03/21 12:19:27;;;;;;;7.80;5.22;;;18.40;99.90;;;;;;5011505;28;20034;-70
2023/03/21 12:21:56;;;;;;;9.48;7.00;;;18.30;99.90;;;;;;5011352;28;20406;-70
2023/03/21 12:24:23;;;;;;;7.75;5.40;;;18.40;99.90;;;;;;5012113;28;20038;-70
2023/03/21 12:27:15;;;;;;;9.95;4.85;;;18.40;99.90;;;;;;5011097;28;20042;-70
2023/03/21 12:29:50;;;;;;;5.15;4.65;;;18.70;99.90;;;;;;5014550;28;20044;-70
2023/03/21 12:32:35;;;;;;;8.20;5.20;;;18.90;99.90;;;;;;5029572;28;20083;-70
2023/03/21 12:35:44;;;;;;;8.13;5.25;;;19.10;99.90;;;;;;5032185;28;20040;-70
2023/03/21 12:38:27;;;;;;;6.38;5.50;;;19.20;99.90;;;;;;5031065;28;20053;-70
2023/03/21 12:41:01;;;;;;;8.93;5.78;;;19.50;99.90;;;;;;5014990;28;20032;-70
2023/03/21 12:43:38;;;;;;;8.02;5.82;;;19.40;99.90;;;;;;5032176;28;20041;-71
2023/03/21 12:46:32;;;;;;;7.38;5.50;;;19.50;99.90;;;;;;5031418;28;20490;-70
2023/03/21 12:49:09;;;;;;;6.28;5.78;;;19.40;99.90;;;;;;5016806;28;20049;-70
2023/03/21 12:51:45;;;;;;;8.13;6.30;;;19.40;99.90;;;;;;5015634;28;20041;-70